Fédération internationale de Ski
Member Section
Print

OFFICIAL RESULTS

Snow Arena (LTU) 04.11.2016

Entry League FIS - Men's Entry League FIS OFFICIAL RESULTS

Race codex : 1825
Valid for FIS Points : YES
Jury
TD FIS DORSS DINARS LAT
Referee Vytautas ANDRIUSKEVICIUS ITA
Chief of Race Reinis ADAMSONS LAT
Technical Data
Start Altitude 148 m.
Finish Altitude 87 m.
Vertical Drop 61 m.
Homologation Number 10542/05/12
Run 1
Course Setter Guntis CIVCS LAT
Number of Gates 29
Turning Gates 28
Start Time 08:00
Run 2
Course Setter Roberto GILARDI ITA
Number of Gates 29
Turning Gates 28
Start Time 09:50
 
Show more info»

Competitors

Rank Bib FIS Code Name Year Nation Run 1 Run 2 Run 3 Total Time Diff. FIS Points
 1  13  550054 ZVEJNIEKS Kristaps  1992  LAT   24.04  21.79  22.58  1:08.41     40.00
 2  10  60271 VERCAMMEN Xander  1999  BEL   24.23  22.15  22.55  1:08.93  +0.52  45.47
 2  4  660021 DANILOCHKIN Yuri  1991  BLR   24.52  21.95  22.46  1:08.93  +0.52  45.47
 4  2  550066 ZVEJNIEKS Miks  1995  LAT   24.77  22.06  22.94  1:09.77  +1.36  54.31
 5  5  151039 NEMEC Jan  1993  CZE   24.66  22.35  23.10  1:10.11  +1.70  57.89
 6  1  550086 GEDRA Zaks  1998  LAT   24.53  22.45  23.15  1:10.13  +1.72  58.10
 7  3  780013 ZAVECKAS Rokas  1996  LTU   24.82  22.41  23.28  1:10.51  +2.10  62.10
 8  11  221233 BREESE Ashley  1996  GBR   24.92  22.41  23.30  1:10.63  +2.22  63.37
 9  7  151060 PAULUS Daniel  1994  CZE   24.77  22.54  23.47  1:10.78  +2.37  64.94
 10  32  6293470 ALLEGRINI Riccardo  2000  ITA   25.05  22.81  23.58  1:11.44  +3.03  71.89
 11  47  60287 LEFEVRE Basile  2000  BEL   25.24  22.91  23.32  1:11.47  +3.06  72.21
 12  12  550087 ZVEJNIEKS Davis  1998  LAT   25.09  22.85  23.76  1:11.70  +3.29  74.63
 13  15  700956 JAROSCAK Miroslav  1999  SVK   25.22  22.92  23.68  1:11.82  +3.41  75.89
 14  43  550078 OPMANIS Elvis  1997  LAT   25.41  23.09  23.67  1:12.17  +3.76  79.57
 15  50  60286 GRANDJEAN Eliot  2000  BEL   25.42  23.02  23.78  1:12.22  +3.81  80.10
 16  6  151129 VASULIN Marek  1995  CZE   25.30  23.27  23.89  1:12.46  +4.05  82.63
 17  26  60243 SCHILDERMANS Steve  1996  BEL   25.72  23.01  23.99  1:12.72  +4.31  85.36
 18  8  430799 KOTWICA Dawid  1999  POL   25.79  23.59  23.98  1:13.36  +4.95  92.10
 19  37  430810 MICHALIK Michal  2000  POL   26.01  23.66  24.22  1:13.89  +5.48  97.68
 20  21  780020 ALEKSANDRAVICIUS Vilius  1995  LTU   26.27  23.49  24.16  1:13.92  +5.51  97.99
 21  46  482069 TARASOV Dmitriy  2000  RUS   26.37  23.52  24.05  1:13.94  +5.53  98.20
 22  25  700953 MAZGUT Denis  1999  SVK   26.27  23.80  24.50  1:14.57  +6.16  104.83
 23  14  60273 LAHAYE Eric  1999  BEL   26.13  24.11  24.47  1:14.71  +6.30  106.31
 24  9  230728 TZIOVAS Nikolaos  1997  GRE   26.03  24.42  24.36  1:14.81  +6.40  107.36
 25  42  660029 STARAZHENKA Dzmitry  2000  BLR   26.10  24.30  24.60  1:15.00  +6.59  109.36
 26  23  360043 BOCK Christophe  1998  LUX   26.15  24.37  24.86  1:15.38  +6.97  113.36
 27  28  430756 PAJAK Tomasz  1993  POL   27.28  23.65  24.49  1:15.42  +7.01  113.78
 28  34  550101 LAZDANS Kristaps  2000  LAT   26.75  24.25  24.82  1:15.82  +7.41  117.99
 29  17  151225 SEVELA Petr  1998  CZE   27.16  23.99  24.96  1:16.11  +7.70  121.04
 30  29  360045 CASTERMANS Max  1998  LUX   26.93  24.39  24.85  1:16.17  +7.76  121.67
 31  22  660026 ZVERNIK Vlad  1998  BLR   26.78  24.60  25.14  1:16.52  +8.11  125.36
 32  39  482060 BILMAK Georgii  2000  RUS   26.74  24.49  25.36  1:16.59  +8.18  126.09
 33  40  550096 CERNEVSKIS Kristers  1999  LAT   27.07  24.74  25.45  1:17.26  +8.85  133.14
 34  24  151250 BOKUVKA Jan  1999  CZE   27.27  24.63  25.70  1:17.60  +9.19  136.72
 35  44  151288 RECHTENBERG Jan  2000  CZE   27.39  24.84  25.79  1:18.02  +9.61  141.14
 36  38  550095 VORSLAVS Klavs Verners  1999  LAT   28.26  24.88  25.59  1:18.73  +10.32  148.62
 37  27  550090 MARTINSONS Ronalds  1998  LAT   28.27  25.16  26.19  1:19.62  +11.21  157.98
 38  51  60279 BOUMANS Santi  2000  BEL   27.94  25.86  26.08  1:19.88  +11.47  160.72
 39  36  550103 JANSONS Alberts  2000  LAT   28.55  24.97  26.67  1:20.19  +11.78  163.98
 40  31  550097 BELAKOVS Edgars  1999  LAT   28.92  25.85  26.45  1:21.22  +12.81  174.82
 41  49  390045 REISMANN Robin  2000  EST   28.98  26.53  26.54  1:22.05  +13.64  183.56
 42  48  690768 AIB Vitalii  2000  UKR   29.74  26.52  26.84  1:23.10  +14.69  194.61
 43  30  690757 KRAVCHUK Ivan  1998  UKR   29.16  26.95  27.40  1:23.51  +15.10  198.92
 44  35  550102 VANAGS Edvards  2000  LAT   31.28  27.41  27.78  1:26.47  +18.06  230.08
Did not finish 3rd run
   33  360048 CLAUS Gianluca  1997  LUX             
Did not finish 2nd run
   19  360046 OSCH Matthieu  1999  LUX             
Did not finish 1st run
   45  690765 PETRUK Nazariy  2000  UKR             
Disqualified 1st run
   41  550104 JURDZS Janis  2000  LAT             
   20  660025 CHERTSIN Uladzislau  1998  BLR             
   16  780023 DRUKAROV Andrej  1999  LTU             
Did not start 1st run
   18  390034 KONI Ranek  1993  EST